sensor_id;sensor_type;location;lat;lon;timestamp;P1;durP1;ratioP1;P2;durP2;ratioP2
74922;SDS011;64715;44.760;37.678;2023-04-23T00:00:33;9.45;;;1.58;;
74922;SDS011;64715;44.760;37.678;2023-04-23T00:01:36;10.13;;;1.70;;
74922;SDS011;64715;44.760;37.678;2023-04-23T00:02:41;8.95;;;2.08;;
74922;SDS011;64715;44.760;37.678;2023-04-23T00:03:46;8.55;;;1.60;;
74922;SDS011;64715;44.760;37.678;2023-04-23T00:04:49;10.83;;;1.63;;
74922;SDS011;64715;44.760;37.678;2023-04-23T00:05:51;9.90;;;1.77;;
74922;SDS011;64715;44.760;37.678;2023-04-23T00:06:55;9.73;;;1.85;;
74922;SDS011;64715;44.760;37.678;2023-04-23T00:07:58;7.07;;;1.73;;
74922;SDS011;64715;44.760;37.678;2023-04-23T00:09:00;8.43;;;1.80;;
74922;SDS011;64715;44.760;37.678;2023-04-23T00:10:03;7.45;;;1.60;;
74922;SDS011;64715;44.760;37.678;2023-04-23T00:11:07;6.55;;;1.55;;
74922;SDS011;64715;44.760;37.678;2023-04-23T00:12:11;9.38;;;1.70;;
74922;SDS011;64715;44.760;37.678;2023-04-23T00:13:12;7.03;;;1.50;;
74922;SDS011;64715;44.760;37.678;2023-04-23T00:14:16;7.60;;;1.75;;
74922;SDS011;64715;44.760;37.678;2023-04-23T00:15:20;8.23;;;1.70;;
74922;SDS011;64715;44.760;37.678;2023-04-23T00:16:21;8.73;;;2.43;;
74922;SDS011;64715;44.760;37.678;2023-04-23T00:17:25;7.05;;;1.30;;
74922;SDS011;64715;44.760;37.678;2023-04-23T00:18:26;8.60;;;2.17;;
74922;SDS011;64715;44.760;37.678;2023-04-23T00:19:31;9.60;;;1.70;;
74922;SDS011;64715;44.760;37.678;2023-04-23T00:20:32;6.90;;;1.50;;
74922;SDS011;64715;44.760;37.678;2023-04-23T00:21:34;8.57;;;1.70;;
74922;SDS011;64715;44.760;37.678;2023-04-23T00:22:35;8.05;;;1.38;;
74922;SDS011;64715;44.760;37.678;2023-04-23T00:23:37;5.68;;;1.30;;
74922;SDS011;64715;44.760;37.678;2023-04-23T00:24:38;6.07;;;0.90;;
74922;SDS011;64715;44.760;37.678;2023-04-23T00:25:40;4.18;;;0.77;;
74922;SDS011;64715;44.760;37.678;2023-04-23T00:26:41;5.82;;;1.05;;
74922;SDS011;64715;44.760;37.678;2023-04-23T00:27:44;9.15;;;0.90;;
74922;SDS011;64715;44.760;37.678;2023-04-23T00:28:47;4.60;;;0.65;;
74922;SDS011;64715;44.760;37.678;2023-04-23T00:29:48;5.97;;;0.82;;
74922;SDS011;64715;44.760;37.678;2023-04-23T00:30:53;10.27;;;0.98;;
74922;SDS011;64715;44.760;37.678;2023-04-23T00:31:53;3.80;;;0.50;;
74922;SDS011;64715;44.760;37.678;2023-04-23T00:32:54;4.20;;;1.13;;
74922;SDS011;64715;44.760;37.678;2023-04-23T00:33:56;5.55;;;0.70;;
74922;SDS011;64715;44.760;37.678;2023-04-23T00:35:00;2.60;;;0.38;;
74922;SDS011;64715;44.760;37.678;2023-04-23T00:36:01;4.40;;;0.40;;
74922;SDS011;64715;44.760;37.678;2023-04-23T00:37:02;5.47;;;0.43;;
74922;SDS011;64715;44.760;37.678;2023-04-23T00:38:06;2.70;;;0.47;;
74922;SDS011;64715;44.760;37.678;2023-04-23T00:39:07;1.40;;;0.30;;
74922;SDS011;64715;44.760;37.678;2023-04-23T00:40:10;3.30;;;0.63;;
74922;SDS011;64715;44.760;37.678;2023-04-23T00:41:12;2.42;;;0.60;;
74922;SDS011;64715;44.760;37.678;2023-04-23T00:42:14;1.27;;;0.20;;
74922;SDS011;64715;44.760;37.678;2023-04-23T00:43:16;5.55;;;0.80;;
74922;SDS011;64715;44.760;37.678;2023-04-23T00:44:18;1.70;;;0.30;;
74922;SDS011;64715;44.760;37.678;2023-04-23T00:45:19;2.67;;;0.55;;
74922;SDS011;64715;44.760;37.678;2023-04-23T00:46:20;1.23;;;0.25;;
74922;SDS011;64715;44.760;37.678;2023-04-23T00:47:21;2.03;;;0.30;;
74922;SDS011;64715;44.760;37.678;2023-04-23T00:48:23;1.98;;;0.47;;
74922;SDS011;64715;44.760;37.678;2023-04-23T00:49:25;2.60;;;0.30;;
74922;SDS011;64715;44.760;37.678;2023-04-23T00:50:27;1.83;;;0.50;;
74922;SDS011;64715;44.760;37.678;2023-04-23T00:51:28;2.75;;;0.30;;
74922;SDS011;64715;44.760;37.678;2023-04-23T00:52:31;1.17;;;0.20;;
74922;SDS011;64715;44.760;37.678;2023-04-23T00:53:32;2.08;;;1.13;;
74922;SDS011;64715;44.760;37.678;2023-04-23T00:54:33;2.10;;;0.32;;
74922;SDS011;64715;44.760;37.678;2023-04-23T00:55:34;1.65;;;0.30;;
74922;SDS011;64715;44.760;37.678;2023-04-23T00:56:36;2.85;;;0.65;;
74922;SDS011;64715;44.760;37.678;2023-04-23T00:57:37;5.80;;;0.67;;
74922;SDS011;64715;44.760;37.678;2023-04-23T00:58:38;1.60;;;0.37;;
74922;SDS011;64715;44.760;37.678;2023-04-23T00:59:40;1.92;;;0.20;;
74922;SDS011;64715;44.760;37.678;2023-04-23T01:00:42;1.60;;;0.20;;
74922;SDS011;64715;44.760;37.678;2023-04-23T01:01:46;2.75;;;0.50;;
74922;SDS011;64715;44.760;37.678;2023-04-23T01:02:47;1.67;;;0.30;;
74922;SDS011;64715;44.760;37.678;2023-04-23T01:03:50;1.63;;;0.38;;
74922;SDS011;64715;44.760;37.678;2023-04-23T01:04:52;1.58;;;0.32;;
74922;SDS011;64715;44.760;37.678;2023-04-23T01:05:54;3.53;;;0.32;;
74922;SDS011;64715;44.760;37.678;2023-04-23T01:06:56;2.03;;;0.53;;
74922;SDS011;64715;44.760;37.678;2023-04-23T01:07:58;2.63;;;0.57;;
74922;SDS011;64715;44.760;37.678;2023-04-23T01:08:59;1.23;;;0.20;;
74922;SDS011;64715;44.760;37.678;2023-04-23T01:10:02;2.60;;;0.55;;
74922;SDS011;64715;44.760;37.678;2023-04-23T01:11:04;7.00;;;0.40;;
74922;SDS011;64715;44.760;37.678;2023-04-23T01:12:06;2.50;;;0.40;;
74922;SDS011;64715;44.760;37.678;2023-04-23T01:13:09;1.27;;;0.20;;
74922;SDS011;64715;44.760;37.678;2023-04-23T01:14:14;2.05;;;0.50;;
74922;SDS011;64715;44.760;37.678;2023-04-23T01:15:15;1.40;;;0.25;;
74922;SDS011;64715;44.760;37.678;2023-04-23T01:16:17;3.08;;;0.75;;
74922;SDS011;64715;44.760;37.678;2023-04-23T01:17:18;1.80;;;0.30;;
74922;SDS011;64715;44.760;37.678;2023-04-23T01:18:19;1.60;;;0.60;;
74922;SDS011;64715;44.760;37.678;2023-04-23T01:19:20;2.92;;;0.40;;
74922;SDS011;64715;44.760;37.678;2023-04-23T01:20:23;3.17;;;0.60;;
74922;SDS011;64715;44.760;37.678;2023-04-23T01:21:24;1.95;;;0.38;;
74922;SDS011;64715;44.760;37.678;2023-04-23T01:22:25;1.95;;;0.30;;
74922;SDS011;64715;44.760;37.678;2023-04-23T01:23:26;1.52;;;0.30;;
74922;SDS011;64715;44.760;37.678;2023-04-23T01:24:28;1.40;;;0.20;;
74922;SDS011;64715;44.760;37.678;2023-04-23T01:25:31;2.15;;;0.52;;
74922;SDS011;64715;44.760;37.678;2023-04-23T01:26:32;1.47;;;0.20;;
74922;SDS011;64715;44.760;37.678;2023-04-23T01:27:33;1.57;;;0.23;;
74922;SDS011;64715;44.760;37.678;2023-04-23T01:28:36;2.03;;;0.47;;
74922;SDS011;64715;44.760;37.678;2023-04-23T01:29:38;1.38;;;0.20;;
74922;SDS011;64715;44.760;37.678;2023-04-23T01:30:41;2.97;;;0.32;;
74922;SDS011;64715;44.760;37.678;2023-04-23T01:31:43;1.00;;;0.10;;
74922;SDS011;64715;44.760;37.678;2023-04-23T01:32:44;1.88;;;0.20;;
74922;SDS011;64715;44.760;37.678;2023-04-23T01:33:47;2.40;;;0.60;;
74922;SDS011;64715;44.760;37.678;2023-04-23T01:34:52;1.85;;;0.40;;
74922;SDS011;64715;44.760;37.678;2023-04-23T01:35:54;1.52;;;0.40;;
74922;SDS011;64715;44.760;37.678;2023-04-23T01:36:57;1.50;;;0.23;;
74922;SDS011;64715;44.760;37.678;2023-04-23T01:37:58;1.00;;;0.20;;
74922;SDS011;64715;44.760;37.678;2023-04-23T01:39:05;2.35;;;0.40;;
74922;SDS011;64715;44.760;37.678;2023-04-23T01:40:06;1.83;;;0.63;;
74922;SDS011;64715;44.760;37.678;2023-04-23T01:41:07;1.48;;;0.32;;
74922;SDS011;64715;44.760;37.678;2023-04-23T01:42:09;1.70;;;0.32;;
74922;SDS011;64715;44.760;37.678;2023-04-23T01:43:10;1.95;;;0.50;;
74922;SDS011;64715;44.760;37.678;2023-04-23T01:44:11;1.75;;;0.40;;
74922;SDS011;64715;44.760;37.678;2023-04-23T01:45:12;1.52;;;0.30;;
74922;SDS011;64715;44.760;37.678;2023-04-23T01:46:13;2.53;;;0.40;;
74922;SDS011;64715;44.760;37.678;2023-04-23T01:47:15;2.00;;;0.30;;
74922;SDS011;64715;44.760;37.678;2023-04-23T01:48:16;1.38;;;0.30;;
74922;SDS011;64715;44.760;37.678;2023-04-23T01:49:17;2.08;;;0.40;;
74922;SDS011;64715;44.760;37.678;2023-04-23T01:50:18;1.38;;;0.22;;
74922;SDS011;64715;44.760;37.678;2023-04-23T01:51:22;1.60;;;0.40;;
74922;SDS011;64715;44.760;37.678;2023-04-23T01:52:25;5.95;;;0.50;;
74922;SDS011;64715;44.760;37.678;2023-04-23T01:53:26;1.67;;;0.20;;
74922;SDS011;64715;44.760;37.678;2023-04-23T01:54:27;1.47;;;0.20;;
74922;SDS011;64715;44.760;37.678;2023-04-23T01:55:28;1.48;;;0.30;;
74922;SDS011;64715;44.760;37.678;2023-04-23T01:56:29;2.03;;;0.63;;
74922;SDS011;64715;44.760;37.678;2023-04-23T01:57:32;4.80;;;0.40;;
74922;SDS011;64715;44.760;37.678;2023-04-23T01:58:33;2.42;;;0.40;;
74922;SDS011;64715;44.760;37.678;2023-04-23T01:59:34;2.42;;;0.68;;
74922;SDS011;64715;44.760;37.678;2023-04-23T02:00:36;3.13;;;0.52;;
74922;SDS011;64715;44.760;37.678;2023-04-23T02:01:41;1.73;;;0.40;;
74922;SDS011;64715;44.760;37.678;2023-04-23T02:02:46;1.50;;;0.47;;
74922;SDS011;64715;44.760;37.678;2023-04-23T02:03:50;1.98;;;0.45;;
74922;SDS011;64715;44.760;37.678;2023-04-23T02:04:51;1.75;;;0.40;;
74922;SDS011;64715;44.760;37.678;2023-04-23T02:05:53;0.98;;;0.20;;
74922;SDS011;64715;44.760;37.678;2023-04-23T02:06:55;2.30;;;0.57;;
74922;SDS011;64715;44.760;37.678;2023-04-23T02:07:56;1.50;;;0.30;;
74922;SDS011;64715;44.760;37.678;2023-04-23T02:08:57;2.55;;;0.50;;
74922;SDS011;64715;44.760;37.678;2023-04-23T02:10:00;2.35;;;0.52;;
74922;SDS011;64715;44.760;37.678;2023-04-23T02:11:03;1.53;;;0.40;;
74922;SDS011;64715;44.760;37.678;2023-04-23T02:12:08;2.87;;;0.33;;
74922;SDS011;64715;44.760;37.678;2023-04-23T02:13:09;10.90;;;0.55;;
74922;SDS011;64715;44.760;37.678;2023-04-23T02:14:11;2.85;;;0.73;;
74922;SDS011;64715;44.760;37.678;2023-04-23T02:15:12;1.45;;;0.30;;
74922;SDS011;64715;44.760;37.678;2023-04-23T02:16:15;1.90;;;0.40;;
74922;SDS011;64715;44.760;37.678;2023-04-23T02:17:16;1.85;;;0.38;;
74922;SDS011;64715;44.760;37.678;2023-04-23T02:18:18;1.63;;;0.35;;
74922;SDS011;64715;44.760;37.678;2023-04-23T02:19:19;2.67;;;0.50;;
74922;SDS011;64715;44.760;37.678;2023-04-23T02:20:21;1.80;;;0.40;;
74922;SDS011;64715;44.760;37.678;2023-04-23T02:21:22;3.77;;;0.70;;
74922;SDS011;64715;44.760;37.678;2023-04-23T02:22:25;2.08;;;0.35;;
74922;SDS011;64715;44.760;37.678;2023-04-23T02:23:28;2.03;;;0.32;;
74922;SDS011;64715;44.760;37.678;2023-04-23T02:24:29;2.38;;;0.60;;
74922;SDS011;64715;44.760;37.678;2023-04-23T02:25:30;2.90;;;0.73;;
74922;SDS011;64715;44.760;37.678;2023-04-23T02:26:34;4.40;;;0.85;;
74922;SDS011;64715;44.760;37.678;2023-04-23T02:27:35;4.32;;;0.52;;
74922;SDS011;64715;44.760;37.678;2023-04-23T02:28:37;1.35;;;0.40;;
74922;SDS011;64715;44.760;37.678;2023-04-23T02:29:38;2.30;;;0.63;;
74922;SDS011;64715;44.760;37.678;2023-04-23T02:30:39;2.30;;;0.60;;
74922;SDS011;64715;44.760;37.678;2023-04-23T02:31:45;2.53;;;0.43;;
74922;SDS011;64715;44.760;37.678;2023-04-23T02:32:46;2.78;;;0.63;;
74922;SDS011;64715;44.760;37.678;2023-04-23T02:33:47;3.00;;;0.70;;
74922;SDS011;64715;44.760;37.678;2023-04-23T02:34:47;3.33;;;0.50;;
74922;SDS011;64715;44.760;37.678;2023-04-23T02:35:48;2.60;;;0.60;;
74922;SDS011;64715;44.760;37.678;2023-04-23T02:36:49;2.63;;;0.68;;
74922;SDS011;64715;44.760;37.678;2023-04-23T02:37:50;2.20;;;0.40;;
74922;SDS011;64715;44.760;37.678;2023-04-23T02:38:53;2.67;;;0.77;;
74922;SDS011;64715;44.760;37.678;2023-04-23T02:39:54;1.80;;;0.45;;
74922;SDS011;64715;44.760;37.678;2023-04-23T02:40:55;2.20;;;0.52;;
74922;SDS011;64715;44.760;37.678;2023-04-23T02:41:56;2.60;;;0.57;;
74922;SDS011;64715;44.760;37.678;2023-04-23T02:43:00;2.50;;;0.63;;
74922;SDS011;64715;44.760;37.678;2023-04-23T02:44:01;2.45;;;0.65;;
74922;SDS011;64715;44.760;37.678;2023-04-23T02:45:02;3.72;;;1.10;;
74922;SDS011;64715;44.760;37.678;2023-04-23T02:46:04;2.72;;;0.80;;
74922;SDS011;64715;44.760;37.678;2023-04-23T02:47:10;7.80;;;0.95;;
74922;SDS011;64715;44.760;37.678;2023-04-23T02:48:11;2.45;;;0.50;;
74922;SDS011;64715;44.760;37.678;2023-04-23T02:49:12;3.40;;;0.88;;
74922;SDS011;64715;44.760;37.678;2023-04-23T02:50:14;11.77;;;0.83;;
74922;SDS011;64715;44.760;37.678;2023-04-23T02:51:15;2.40;;;0.80;;
74922;SDS011;64715;44.760;37.678;2023-04-23T02:52:17;2.25;;;0.40;;
74922;SDS011;64715;44.760;37.678;2023-04-23T02:53:18;2.58;;;0.80;;
74922;SDS011;64715;44.760;37.678;2023-04-23T02:54:19;8.27;;;0.63;;
74922;SDS011;64715;44.760;37.678;2023-04-23T02:55:20;1.67;;;0.32;;
74922;SDS011;64715;44.760;37.678;2023-04-23T02:56:21;3.85;;;0.95;;
74922;SDS011;64715;44.760;37.678;2023-04-23T02:57:22;1.95;;;0.38;;
74922;SDS011;64715;44.760;37.678;2023-04-23T02:58:23;3.57;;;0.97;;
74922;SDS011;64715;44.760;37.678;2023-04-23T02:59:27;2.43;;;0.70;;
74922;SDS011;64715;44.760;37.678;2023-04-23T03:00:28;3.13;;;0.68;;
74922;SDS011;64715;44.760;37.678;2023-04-23T03:01:29;3.65;;;1.13;;
74922;SDS011;64715;44.760;37.678;2023-04-23T03:02:30;5.75;;;0.77;;
74922;SDS011;64715;44.760;37.678;2023-04-23T03:03:32;2.70;;;0.65;;
74922;SDS011;64715;44.760;37.678;2023-04-23T03:04:34;3.70;;;0.95;;
74922;SDS011;64715;44.760;37.678;2023-04-23T03:05:36;3.42;;;0.75;;
74922;SDS011;64715;44.760;37.678;2023-04-23T03:06:37;3.30;;;0.88;;
74922;SDS011;64715;44.760;37.678;2023-04-23T03:07:38;3.17;;;0.70;;
74922;SDS011;64715;44.760;37.678;2023-04-23T03:08:40;2.13;;;0.70;;
74922;SDS011;64715;44.760;37.678;2023-04-23T03:09:41;2.40;;;0.67;;
74922;SDS011;64715;44.760;37.678;2023-04-23T03:10:42;3.97;;;1.00;;
74922;SDS011;64715;44.760;37.678;2023-04-23T03:11:43;2.30;;;0.60;;
74922;SDS011;64715;44.760;37.678;2023-04-23T03:12:46;2.88;;;0.70;;
74922;SDS011;64715;44.760;37.678;2023-04-23T03:13:48;6.75;;;0.95;;
74922;SDS011;64715;44.760;37.678;2023-04-23T03:14:51;2.53;;;0.80;;
74922;SDS011;64715;44.760;37.678;2023-04-23T03:15:54;5.55;;;0.98;;
74922;SDS011;64715;44.760;37.678;2023-04-23T03:16:56;3.28;;;0.63;;
74922;SDS011;64715;44.760;37.678;2023-04-23T03:17:56;1.93;;;0.40;;
74922;SDS011;64715;44.760;37.678;2023-04-23T03:18:58;2.23;;;0.40;;
74922;SDS011;64715;44.760;37.678;2023-04-23T03:20:00;3.70;;;0.85;;
74922;SDS011;64715;44.760;37.678;2023-04-23T03:21:04;12.23;;;1.15;;
74922;SDS011;64715;44.760;37.678;2023-04-23T03:22:05;7.82;;;0.50;;
74922;SDS011;64715;44.760;37.678;2023-04-23T03:23:06;2.88;;;0.50;;
74922;SDS011;64715;44.760;37.678;2023-04-23T03:24:07;3.55;;;0.70;;
74922;SDS011;64715;44.760;37.678;2023-04-23T03:25:10;3.47;;;0.95;;
74922;SDS011;64715;44.760;37.678;2023-04-23T03:26:12;2.65;;;0.68;;
74922;SDS011;64715;44.760;37.678;2023-04-23T03:27:13;3.35;;;0.85;;
74922;SDS011;64715;44.760;37.678;2023-04-23T03:28:14;3.83;;;0.80;;
74922;SDS011;64715;44.760;37.678;2023-04-23T03:29:15;3.27;;;0.93;;
74922;SDS011;64715;44.760;37.678;2023-04-23T03:30:16;3.90;;;0.98;;
74922;SDS011;64715;44.760;37.678;2023-04-23T03:31:17;1.65;;;0.30;;
74922;SDS011;64715;44.760;37.678;2023-04-23T03:32:18;4.22;;;1.00;;
74922;SDS011;64715;44.760;37.678;2023-04-23T03:33:19;1.70;;;0.30;;
74922;SDS011;64715;44.760;37.678;2023-04-23T03:34:20;2.92;;;0.77;;
74922;SDS011;64715;44.760;37.678;2023-04-23T03:35:23;4.07;;;0.90;;
74922;SDS011;64715;44.760;37.678;2023-04-23T03:36:27;8.43;;;1.05;;
74922;SDS011;64715;44.760;37.678;2023-04-23T03:37:28;6.00;;;1.13;;
74922;SDS011;64715;44.760;37.678;2023-04-23T03:38:29;3.40;;;0.80;;
74922;SDS011;64715;44.760;37.678;2023-04-23T03:39:32;4.28;;;1.20;;
74922;SDS011;64715;44.760;37.678;2023-04-23T03:40:33;3.38;;;0.70;;
74922;SDS011;64715;44.760;37.678;2023-04-23T03:41:37;2.97;;;0.90;;
74922;SDS011;64715;44.760;37.678;2023-04-23T03:42:38;3.67;;;0.82;;
74922;SDS011;64715;44.760;37.678;2023-04-23T03:43:39;2.80;;;0.77;;
74922;SDS011;64715;44.760;37.678;2023-04-23T03:44:53;7.13;;;1.23;;
74922;SDS011;64715;44.760;37.678;2023-04-23T03:45:54;2.30;;;0.50;;
74922;SDS011;64715;44.760;37.678;2023-04-23T03:46:56;2.83;;;0.68;;
74922;SDS011;64715;44.760;37.678;2023-04-23T03:47:57;3.43;;;0.97;;
74922;SDS011;64715;44.760;37.678;2023-04-23T03:48:58;5.33;;;1.77;;
74922;SDS011;64715;44.760;37.678;2023-04-23T03:50:01;3.25;;;0.88;;
74922;SDS011;64715;44.760;37.678;2023-04-23T03:51:03;2.15;;;0.43;;
74922;SDS011;64715;44.760;37.678;2023-04-23T03:52:23;2.63;;;0.68;;
74922;SDS011;64715;44.760;37.678;2023-04-23T03:53:24;3.15;;;1.02;;
74922;SDS011;64715;44.760;37.678;2023-04-23T03:54:47;3.30;;;1.00;;
74922;SDS011;64715;44.760;37.678;2023-04-23T03:55:52;3.80;;;0.63;;
74922;SDS011;64715;44.760;37.678;2023-04-23T03:56:53;4.88;;;0.95;;
74922;SDS011;64715;44.760;37.678;2023-04-23T03:57:58;5.20;;;0.73;;
74922;SDS011;64715;44.760;37.678;2023-04-23T03:59:05;2.90;;;0.90;;
74922;SDS011;64715;44.760;37.678;2023-04-23T04:00:07;2.28;;;0.50;;
74922;SDS011;64715;44.760;37.678;2023-04-23T04:01:13;3.22;;;0.80;;
74922;SDS011;64715;44.760;37.678;2023-04-23T04:02:14;3.90;;;1.30;;
74922;SDS011;64715;44.760;37.678;2023-04-23T04:03:15;3.22;;;0.68;;
74922;SDS011;64715;44.760;37.678;2023-04-23T04:04:16;3.70;;;1.15;;
74922;SDS011;64715;44.760;37.678;2023-04-23T04:05:17;3.58;;;0.73;;
74922;SDS011;64715;44.760;37.678;2023-04-23T04:06:19;3.15;;;0.93;;
74922;SDS011;64715;44.760;37.678;2023-04-23T04:07:21;6.83;;;1.07;;
74922;SDS011;64715;44.760;37.678;2023-04-23T04:08:22;3.57;;;1.13;;
74922;SDS011;64715;44.760;37.678;2023-04-23T04:09:23;4.75;;;1.25;;
74922;SDS011;64715;44.760;37.678;2023-04-23T04:10:24;3.08;;;0.77;;
74922;SDS011;64715;44.760;37.678;2023-04-23T04:11:25;4.10;;;1.27;;
74922;SDS011;64715;44.760;37.678;2023-04-23T04:12:26;5.07;;;1.25;;
74922;SDS011;64715;44.760;37.678;2023-04-23T04:13:27;5.40;;;1.27;;
74922;SDS011;64715;44.760;37.678;2023-04-23T04:14:28;2.70;;;0.57;;
74922;SDS011;64715;44.760;37.678;2023-04-23T04:15:28;3.22;;;0.82;;
74922;SDS011;64715;44.760;37.678;2023-04-23T04:16:29;4.55;;;1.77;;
74922;SDS011;64715;44.760;37.678;2023-04-23T04:17:30;6.80;;;2.67;;
74922;SDS011;64715;44.760;37.678;2023-04-23T04:18:31;5.18;;;1.15;;
74922;SDS011;64715;44.760;37.678;2023-04-23T04:19:32;4.83;;;1.63;;
74922;SDS011;64715;44.760;37.678;2023-04-23T04:20:34;6.32;;;1.13;;
74922;SDS011;64715;44.760;37.678;2023-04-23T04:21:35;3.28;;;0.77;;
74922;SDS011;64715;44.760;37.678;2023-04-23T04:22:36;5.57;;;1.10;;
74922;SDS011;64715;44.760;37.678;2023-04-23T04:23:37;5.43;;;1.00;;
74922;SDS011;64715;44.760;37.678;2023-04-23T04:24:39;3.38;;;1.20;;
74922;SDS011;64715;44.760;37.678;2023-04-23T04:25:41;2.90;;;0.95;;
74922;SDS011;64715;44.760;37.678;2023-04-23T04:26:44;4.27;;;1.07;;
74922;SDS011;64715;44.760;37.678;2023-04-23T04:27:47;2.67;;;0.63;;
74922;SDS011;64715;44.760;37.678;2023-04-23T04:28:48;4.43;;;1.38;;
74922;SDS011;64715;44.760;37.678;2023-04-23T04:29:50;2.72;;;0.68;;
74922;SDS011;64715;44.760;37.678;2023-04-23T04:30:51;4.75;;;1.27;;
74922;SDS011;64715;44.760;37.678;2023-04-23T04:31:53;5.60;;;0.82;;
74922;SDS011;64715;44.760;37.678;2023-04-23T04:32:54;5.22;;;1.08;;
74922;SDS011;64715;44.760;37.678;2023-04-23T04:33:56;4.85;;;1.20;;
74922;SDS011;64715;44.760;37.678;2023-04-23T04:34:57;3.83;;;1.13;;
74922;SDS011;64715;44.760;37.678;2023-04-23T04:35:58;4.43;;;1.33;;
74922;SDS011;64715;44.760;37.678;2023-04-23T04:36:59;3.97;;;1.02;;
74922;SDS011;64715;44.760;37.678;2023-04-23T04:38:01;5.28;;;1.38;;
74922;SDS011;64715;44.760;37.678;2023-04-23T04:39:02;2.30;;;0.57;;
74922;SDS011;64715;44.760;37.678;2023-04-23T04:40:03;5.50;;;1.00;;
74922;SDS011;64715;44.760;37.678;2023-04-23T04:41:07;5.03;;;1.00;;
74922;SDS011;64715;44.760;37.678;2023-04-23T04:42:08;5.13;;;0.97;;
74922;SDS011;64715;44.760;37.678;2023-04-23T04:43:10;4.82;;;1.20;;
74922;SDS011;64715;44.760;37.678;2023-04-23T04:44:11;2.95;;;0.85;;
74922;SDS011;64715;44.760;37.678;2023-04-23T04:45:13;4.78;;;1.17;;
74922;SDS011;64715;44.760;37.678;2023-04-23T04:46:16;3.70;;;0.73;;
74922;SDS011;64715;44.760;37.678;2023-04-23T04:47:20;12.98;;;1.23;;
74922;SDS011;64715;44.760;37.678;2023-04-23T04:48:21;5.95;;;1.20;;
74922;SDS011;64715;44.760;37.678;2023-04-23T04:49:22;6.63;;;1.13;;
74922;SDS011;64715;44.760;37.678;2023-04-23T04:50:23;3.87;;;0.93;;
74922;SDS011;64715;44.760;37.678;2023-04-23T04:51:24;4.13;;;1.20;;
74922;SDS011;64715;44.760;37.678;2023-04-23T04:52:26;7.35;;;1.27;;
74922;SDS011;64715;44.760;37.678;2023-04-23T04:53:27;5.10;;;0.90;;
74922;SDS011;64715;44.760;37.678;2023-04-23T04:54:28;11.43;;;1.25;;
74922;SDS011;64715;44.760;37.678;2023-04-23T04:55:29;3.00;;;0.85;;
74922;SDS011;64715;44.760;37.678;2023-04-23T04:56:30;4.23;;;1.20;;
74922;SDS011;64715;44.760;37.678;2023-04-23T04:57:31;5.25;;;0.90;;
74922;SDS011;64715;44.760;37.678;2023-04-23T04:58:32;5.03;;;1.40;;
74922;SDS011;64715;44.760;37.678;2023-04-23T04:59:34;6.93;;;1.88;;
74922;SDS011;64715;44.760;37.678;2023-04-23T05:00:35;5.47;;;1.50;;
74922;SDS011;64715;44.760;37.678;2023-04-23T05:01:36;5.68;;;1.63;;
74922;SDS011;64715;44.760;37.678;2023-04-23T05:02:37;3.20;;;1.03;;
74922;SDS011;64715;44.760;37.678;2023-04-23T05:03:38;3.33;;;0.93;;
74922;SDS011;64715;44.760;37.678;2023-04-23T05:04:39;3.95;;;0.75;;
74922;SDS011;64715;44.760;37.678;2023-04-23T05:05:41;3.60;;;0.90;;
74922;SDS011;64715;44.760;37.678;2023-04-23T05:06:43;6.57;;;0.73;;
74922;SDS011;64715;44.760;37.678;2023-04-23T05:07:44;2.65;;;0.73;;
74922;SDS011;64715;44.760;37.678;2023-04-23T05:08:45;3.72;;;1.00;;
74922;SDS011;64715;44.760;37.678;2023-04-23T05:09:47;3.43;;;0.50;;
74922;SDS011;64715;44.760;37.678;2023-04-23T05:10:48;3.80;;;0.87;;
74922;SDS011;64715;44.760;37.678;2023-04-23T05:11:53;3.35;;;0.95;;
74922;SDS011;64715;44.760;37.678;2023-04-23T05:12:55;3.92;;;1.17;;
74922;SDS011;64715;44.760;37.678;2023-04-23T05:13:56;6.75;;;1.13;;
74922;SDS011;64715;44.760;37.678;2023-04-23T05:14:57;5.38;;;0.98;;
74922;SDS011;64715;44.760;37.678;2023-04-23T05:15:58;7.15;;;1.77;;
74922;SDS011;64715;44.760;37.678;2023-04-23T05:16:59;6.80;;;2.23;;
74922;SDS011;64715;44.760;37.678;2023-04-23T05:18:04;4.38;;;1.35;;
74922;SDS011;64715;44.760;37.678;2023-04-23T05:19:06;3.90;;;1.00;;
74922;SDS011;64715;44.760;37.678;2023-04-23T05:20:07;3.08;;;0.85;;
74922;SDS011;64715;44.760;37.678;2023-04-23T05:21:10;3.45;;;0.68;;
74922;SDS011;64715;44.760;37.678;2023-04-23T05:22:12;4.30;;;1.20;;
74922;SDS011;64715;44.760;37.678;2023-04-23T05:23:14;4.82;;;1.65;;
74922;SDS011;64715;44.760;37.678;2023-04-23T05:24:15;3.92;;;1.08;;
74922;SDS011;64715;44.760;37.678;2023-04-23T05:25:16;7.03;;;1.60;;
74922;SDS011;64715;44.760;37.678;2023-04-23T05:26:17;3.45;;;0.82;;
74922;SDS011;64715;44.760;37.678;2023-04-23T05:27:18;5.30;;;1.02;;
74922;SDS011;64715;44.760;37.678;2023-04-23T05:28:19;4.07;;;1.50;;
74922;SDS011;64715;44.760;37.678;2023-04-23T05:29:20;6.53;;;1.52;;
74922;SDS011;64715;44.760;37.678;2023-04-23T05:30:22;8.85;;;3.08;;
74922;SDS011;64715;44.760;37.678;2023-04-23T05:31:23;8.17;;;1.83;;
74922;SDS011;64715;44.760;37.678;2023-04-23T05:32:24;4.22;;;1.42;;
74922;SDS011;64715;44.760;37.678;2023-04-23T05:33:25;3.88;;;1.10;;
74922;SDS011;64715;44.760;37.678;2023-04-23T05:34:27;3.10;;;1.02;;
74922;SDS011;64715;44.760;37.678;2023-04-23T05:35:28;3.88;;;1.10;;
74922;SDS011;64715;44.760;37.678;2023-04-23T05:36:33;4.82;;;1.35;;
74922;SDS011;64715;44.760;37.678;2023-04-23T05:37:34;4.10;;;1.20;;
74922;SDS011;64715;44.760;37.678;2023-04-23T05:38:35;4.72;;;1.38;;
74922;SDS011;64715;44.760;37.678;2023-04-23T05:39:36;3.03;;;0.67;;
74922;SDS011;64715;44.760;37.678;2023-04-23T05:40:37;5.22;;;1.23;;
74922;SDS011;64715;44.760;37.678;2023-04-23T05:41:38;9.85;;;1.38;;
74922;SDS011;64715;44.760;37.678;2023-04-23T05:42:40;5.82;;;1.17;;
74922;SDS011;64715;44.760;37.678;2023-04-23T05:43:41;3.90;;;1.05;;
74922;SDS011;64715;44.760;37.678;2023-04-23T05:44:42;4.50;;;0.90;;
74922;SDS011;64715;44.760;37.678;2023-04-23T05:45:44;4.47;;;1.02;;
74922;SDS011;64715;44.760;37.678;2023-04-23T05:46:45;3.83;;;1.00;;
74922;SDS011;64715;44.760;37.678;2023-04-23T05:47:46;4.47;;;1.00;;
74922;SDS011;64715;44.760;37.678;2023-04-23T05:48:47;9.15;;;0.90;;
74922;SDS011;64715;44.760;37.678;2023-04-23T05:49:48;4.40;;;1.35;;
74922;SDS011;64715;44.760;37.678;2023-04-23T05:50:49;6.28;;;1.50;;
74922;SDS011;64715;44.760;37.678;2023-04-23T05:51:50;3.45;;;0.98;;
74922;SDS011;64715;44.760;37.678;2023-04-23T05:52:51;3.90;;;0.77;;
74922;SDS011;64715;44.760;37.678;2023-04-23T05:53:53;3.25;;;0.82;;
74922;SDS011;64715;44.760;37.678;2023-04-23T05:54:54;12.15;;;1.23;;
74922;SDS011;64715;44.760;37.678;2023-04-23T05:55:55;3.63;;;1.02;;
74922;SDS011;64715;44.760;37.678;2023-04-23T05:56:56;3.20;;;0.85;;
74922;SDS011;64715;44.760;37.678;2023-04-23T05:57:58;4.47;;;1.10;;
74922;SDS011;64715;44.760;37.678;2023-04-23T05:58:59;8.88;;;3.22;;
74922;SDS011;64715;44.760;37.678;2023-04-23T06:00:00;4.67;;;1.77;;
74922;SDS011;64715;44.760;37.678;2023-04-23T06:01:01;5.00;;;1.30;;
74922;SDS011;64715;44.760;37.678;2023-04-23T06:02:02;3.78;;;0.65;;
74922;SDS011;64715;44.760;37.678;2023-04-23T06:03:03;4.55;;;0.90;;
74922;SDS011;64715;44.760;37.678;2023-04-23T06:04:06;4.00;;;0.98;;
74922;SDS011;64715;44.760;37.678;2023-04-23T06:05:07;4.85;;;1.08;;
74922;SDS011;64715;44.760;37.678;2023-04-23T06:06:09;4.05;;;1.15;;
74922;SDS011;64715;44.760;37.678;2023-04-23T06:07:13;6.07;;;1.88;;